createdAt,value
2023-03-27T00:00:01.474Z,78.84
2023-03-27T00:01:03.347Z,79.73
2023-03-27T00:02:06.339Z,80.41
2023-03-27T00:03:10.212Z,79.14
2023-03-27T00:04:13.260Z,80.02
2023-03-27T00:05:20.864Z,81.19
2023-03-27T00:06:24.867Z,81.22
2023-03-27T00:07:27.331Z,82.12
2023-03-27T00:08:29.990Z,81.49
2023-03-27T00:09:32.726Z,80.04
2023-03-27T00:10:34.838Z,80.32
2023-03-27T00:11:37.030Z,80.34
2023-03-27T00:12:39.295Z,80.67
2023-03-27T00:13:48.895Z,80.63
2023-03-27T00:14:52.643Z,81.16
2023-03-27T00:15:57.051Z,81.39
2023-03-27T00:17:00.274Z,81.49
2023-03-27T00:18:04.227Z,81.70
2023-03-27T00:19:06.571Z,81.64
2023-03-27T00:20:08.739Z,81.82
2023-03-27T00:21:10.610Z,81.67
2023-03-27T00:22:12.877Z,81.65
2023-03-27T00:23:15.372Z,82.30
2023-03-27T00:24:17.310Z,82.38
2023-03-27T00:25:19.809Z,81.55
2023-03-27T00:26:22.139Z,82.43
2023-03-27T00:27:25.111Z,83.25
2023-03-27T00:28:29.373Z,82.85
2023-03-27T00:29:31.311Z,82.46
2023-03-27T00:30:33.717Z,83.07
2023-03-27T00:31:35.714Z,83.50
2023-03-27T00:32:37.614Z,84.15
2023-03-27T00:33:40.811Z,83.37
2023-03-27T00:34:42.655Z,83.40
2023-03-27T00:35:46.836Z,82.90
2023-03-27T00:36:51.222Z,83.59
2023-03-27T00:37:53.870Z,83.56
2023-03-27T00:38:56.097Z,82.50
2023-03-27T00:39:58.281Z,82.38
2023-03-27T00:41:00.580Z,82.28
2023-03-27T00:42:03.440Z,82.81
2023-03-27T00:43:29.099Z,82.70
2023-03-27T00:44:35.522Z,83.53
2023-03-27T00:45:38.582Z,83.51
2023-03-27T00:46:45.221Z,82.30
2023-03-27T00:47:54.223Z,81.58
2023-03-27T00:49:01.551Z,82.95
2023-03-27T00:50:08.834Z,83.82
2023-03-27T00:51:10.850Z,84.43
2023-03-27T00:52:13.694Z,84.54
2023-03-27T00:53:22.575Z,84.48
2023-03-27T00:54:30.024Z,83.99
2023-03-27T00:55:36.376Z,84.31
2023-03-27T00:56:38.934Z,84.06
2023-03-27T00:57:44.675Z,84.22
2023-03-27T00:58:56.903Z,84.61
2023-03-27T01:00:02.291Z,84.40
2023-03-27T01:01:07.944Z,85.04
2023-03-27T01:02:10.203Z,85.48
2023-03-27T01:03:12.521Z,85.70
2023-03-27T01:04:14.694Z,86.28
2023-03-27T01:05:20.031Z,86.37
2023-03-27T01:06:23.455Z,86.33
2023-03-27T01:07:25.848Z,86.31
2023-03-27T01:08:30.676Z,86.10
2023-03-27T01:09:33.536Z,86.30
2023-03-27T01:10:53.808Z,85.96
2023-03-27T01:11:56.123Z,86.08
2023-03-27T01:13:33.333Z,85.45
2023-03-27T01:15:20.207Z,85.27
2023-03-27T01:16:40.962Z,84.79
2023-03-27T01:17:57.847Z,84.94
2023-03-27T01:19:11.661Z,84.73
2023-03-27T01:20:32.566Z,84.33
2023-03-27T01:21:48.192Z,83.78
2023-03-27T01:23:06.242Z,83.98
2023-03-27T01:24:42.577Z,84.18
2023-03-27T01:26:00.711Z,84.55
2023-03-27T01:27:11.136Z,85.39
2023-03-27T01:28:29.052Z,84.72
2023-03-27T01:29:48.376Z,84.78
2023-03-27T01:30:52.464Z,85.66
2023-03-27T01:32:02.100Z,85.45
2023-03-27T01:33:28.385Z,85.07
2023-03-27T01:35:01.826Z,84.34
2023-03-27T01:36:11.650Z,84.57
2023-03-27T01:37:42.284Z,84.79
2023-03-27T01:39:11.631Z,85.46
2023-03-27T01:40:21.787Z,85.16
2023-03-27T01:41:26.851Z,85.33
2023-03-27T01:42:35.085Z,85.52
2023-03-27T01:43:46.073Z,85.79
2023-03-27T01:45:09.530Z,85.85
2023-03-27T01:46:27.006Z,85.92
2023-03-27T01:47:36.990Z,85.59
2023-03-27T01:48:44.812Z,85.77
2023-03-27T01:49:57.273Z,87.33
2023-03-27T01:51:09.866Z,87.53
2023-03-27T01:52:21.104Z,87.29
2023-03-27T01:53:28.830Z,87.48
2023-03-27T01:54:36.009Z,87.05
2023-03-27T01:55:44.324Z,86.80
2023-03-27T01:56:54.607Z,86.65
2023-03-27T01:58:07.553Z,85.92
2023-03-27T01:59:18.885Z,86.33
2023-03-27T02:00:24.351Z,86.22
2023-03-27T02:01:42.264Z,86.44
2023-03-27T02:03:08.040Z,85.84
2023-03-27T02:04:20.677Z,85.83
2023-03-27T02:05:28.724Z,85.67
2023-03-27T02:06:37.903Z,85.56
2023-03-27T02:07:47.484Z,85.45
2023-03-27T02:09:06.925Z,85.42
2023-03-27T02:10:15.454Z,86.03
2023-03-27T02:11:18.191Z,86.74
2023-03-27T02:12:32.071Z,86.93
2023-03-27T02:13:52.252Z,87.12
2023-03-27T02:15:23.628Z,87.83
2023-03-27T02:16:34.348Z,87.53
2023-03-27T02:17:43.185Z,85.39
2023-03-27T02:18:54.383Z,86.31
2023-03-27T02:20:16.322Z,86.36
2023-03-27T02:21:18.529Z,86.37
2023-03-27T02:22:20.898Z,86.07
2023-03-27T02:23:40.581Z,85.94
2023-03-27T02:24:46.351Z,86.42
2023-03-27T02:25:48.549Z,86.36
2023-03-27T02:26:59.803Z,86.30
2023-03-27T02:28:15.476Z,86.35
2023-03-27T02:29:36.312Z,86.42
2023-03-27T02:31:32.170Z,86.68
2023-03-27T02:33:14.916Z,86.41
2023-03-27T02:34:26.498Z,87.49
2023-03-27T02:35:57.247Z,88.05
2023-03-27T02:37:32.357Z,88.66
2023-03-27T02:38:45.208Z,88.92
2023-03-27T02:40:18.769Z,88.60
2023-03-27T02:41:36.522Z,88.30
2023-03-27T02:42:46.433Z,88.12
2023-03-27T02:44:06.372Z,88.42
2023-03-27T02:45:26.637Z,88.73
2023-03-27T02:46:42.926Z,89.24
2023-03-27T02:48:08.428Z,89.17
2023-03-27T02:49:17.341Z,88.38
2023-03-27T02:50:26.507Z,88.09
2023-03-27T02:51:40.421Z,88.85
2023-03-27T02:52:48.065Z,88.55
2023-03-27T02:53:59.462Z,88.04
2023-03-27T02:55:06.874Z,87.30
2023-03-27T02:56:12.003Z,87.79
2023-03-27T02:57:20.539Z,88.08
2023-03-27T02:58:30.718Z,87.48
2023-03-27T02:59:39.444Z,87.31
2023-03-27T03:00:48.981Z,87.30
2023-03-27T03:01:53.011Z,87.00
2023-03-27T03:03:09.098Z,87.06
2023-03-27T03:04:24.558Z,86.62
2023-03-27T03:05:28.508Z,87.32
2023-03-27T03:06:30.846Z,87.73
2023-03-27T03:07:34.779Z,87.52
2023-03-27T03:08:41.077Z,86.83
2023-03-27T03:09:44.605Z,87.34
2023-03-27T03:10:47.719Z,87.55
2023-03-27T03:11:52.621Z,87.45
2023-03-27T03:12:55.018Z,87.33
2023-03-27T03:13:57.361Z,86.93
2023-03-27T03:14:59.278Z,87.10
2023-03-27T03:16:01.239Z,87.28
2023-03-27T03:17:03.514Z,87.17
2023-03-27T03:18:07.273Z,87.67
2023-03-27T03:19:09.353Z,87.36
2023-03-27T03:20:13.036Z,87.27
2023-03-27T03:21:15.385Z,87.20
2023-03-27T03:22:17.276Z,87.12
2023-03-27T03:23:22.561Z,86.48
2023-03-27T03:24:25.026Z,86.70
2023-03-27T03:25:27.040Z,86.97
2023-03-27T03:26:30.064Z,86.77
2023-03-27T03:27:34.122Z,87.72
2023-03-27T03:28:36.722Z,87.43
2023-03-27T03:29:38.584Z,86.96
2023-03-27T03:30:43.369Z,86.43
2023-03-27T03:31:45.779Z,86.37
2023-03-27T03:32:47.840Z,86.42
2023-03-27T03:33:50.653Z,86.76
2023-03-27T03:34:52.657Z,87.10
2023-03-27T03:35:54.896Z,86.53
2023-03-27T03:36:58.175Z,87.01
2023-03-27T03:38:03.886Z,86.45
2023-03-27T03:39:09.966Z,86.86
2023-03-27T03:40:12.153Z,87.97
2023-03-27T03:41:14.597Z,88.61
2023-03-27T03:42:22.354Z,87.79
2023-03-27T03:43:28.154Z,87.98
2023-03-27T03:44:32.876Z,88.19
2023-03-27T03:45:35.370Z,88.22
2023-03-27T03:46:37.301Z,88.24
2023-03-27T03:47:39.343Z,88.68
2023-03-27T03:48:41.616Z,88.20
2023-03-27T03:49:43.869Z,88.59
2023-03-27T03:50:47.075Z,88.52
2023-03-27T03:52:03.765Z,88.18
2023-03-27T03:53:07.242Z,87.67
2023-03-27T03:54:09.387Z,88.90
2023-03-27T03:55:12.159Z,89.20
2023-03-27T03:56:15.068Z,88.72
2023-03-27T03:57:18.499Z,88.48
2023-03-27T03:58:34.604Z,87.76
2023-03-27T03:59:39.211Z,87.34
2023-03-27T04:00:43.780Z,87.53
2023-03-27T04:01:46.622Z,87.49
2023-03-27T04:02:58.146Z,87.26
2023-03-27T04:04:00.292Z,86.92
2023-03-27T04:05:09.094Z,86.91
2023-03-27T04:06:14.093Z,87.38
2023-03-27T04:07:17.735Z,87.09
2023-03-27T04:08:20.245Z,87.18
2023-03-27T04:09:22.562Z,87.64
2023-03-27T04:10:26.897Z,87.93
2023-03-27T04:11:29.000Z,88.29
2023-03-27T04:12:32.551Z,88.99
2023-03-27T04:13:34.769Z,88.28
2023-03-27T04:14:45.276Z,87.86
2023-03-27T04:15:48.565Z,88.41
2023-03-27T04:16:50.837Z,88.47
2023-03-27T04:17:53.824Z,87.67
2023-03-27T04:18:55.877Z,87.13
2023-03-27T04:19:58.077Z,87.67
2023-03-27T04:21:00.123Z,87.09
2023-03-27T04:22:02.598Z,86.61
2023-03-27T04:23:05.640Z,87.05
2023-03-27T04:24:09.753Z,86.53
2023-03-27T04:25:17.447Z,86.22
2023-03-27T04:26:26.405Z,86.61
2023-03-27T04:27:37.695Z,86.29
2023-03-27T04:28:42.180Z,86.05
2023-03-27T04:29:47.376Z,85.71
2023-03-27T04:31:06.487Z,86.61
2023-03-27T04:32:19.268Z,86.95
2023-03-27T04:33:24.261Z,87.02
2023-03-27T04:34:27.662Z,86.42
2023-03-27T04:35:37.262Z,87.28
2023-03-27T04:36:39.774Z,87.80
2023-03-27T04:37:43.048Z,86.85
2023-03-27T04:38:45.698Z,85.90
2023-03-27T04:39:49.834Z,85.73
2023-03-27T04:40:54.700Z,85.62
2023-03-27T04:41:58.379Z,85.48
2023-03-27T04:43:05.321Z,85.49
2023-03-27T04:44:07.541Z,85.41
2023-03-27T04:45:17.314Z,85.15
2023-03-27T04:46:20.171Z,85.59
2023-03-27T04:47:28.200Z,84.64
2023-03-27T04:48:34.520Z,85.17
2023-03-27T04:49:40.694Z,83.30
2023-03-27T04:50:49.307Z,82.89
2023-03-27T04:51:56.830Z,82.39
2023-03-27T04:53:03.088Z,86.83
2023-03-27T04:54:09.036Z,81.79
2023-03-27T04:55:16.800Z,82.04
2023-03-27T04:56:22.899Z,81.31
2023-03-27T04:57:30.974Z,81.90
2023-03-27T04:58:35.959Z,81.85
2023-03-27T04:59:42.140Z,82.16
2023-03-27T05:00:50.322Z,82.25
2023-03-27T05:01:55.428Z,82.21
2023-03-27T05:02:57.751Z,83.15
2023-03-27T05:04:02.508Z,82.71
2023-03-27T05:05:05.880Z,81.40
2023-03-27T05:06:08.572Z,82.58
2023-03-27T05:07:12.352Z,82.88
2023-03-27T05:08:14.341Z,82.71
2023-03-27T05:09:17.979Z,82.62
2023-03-27T05:10:21.843Z,83.34
2023-03-27T05:11:24.539Z,83.06
2023-03-27T05:12:27.972Z,82.85
2023-03-27T05:13:31.586Z,83.58
2023-03-27T05:14:33.746Z,84.02
2023-03-27T05:15:35.657Z,84.00
2023-03-27T05:16:38.452Z,83.82
2023-03-27T05:17:43.192Z,83.97
2023-03-27T05:18:45.232Z,83.07
2023-03-27T05:19:47.226Z,83.89
2023-03-27T05:20:50.107Z,82.78
2023-03-27T05:21:52.572Z,83.52
2023-03-27T05:22:56.385Z,84.94
2023-03-27T05:23:58.804Z,84.76
2023-03-27T05:25:01.574Z,83.12
2023-03-27T05:26:03.687Z,82.59
2023-03-27T05:27:17.297Z,83.06
2023-03-27T05:28:20.908Z,82.82
2023-03-27T05:29:22.837Z,92.19
2023-03-27T05:30:30.629Z,86.52
2023-03-27T05:31:35.066Z,77.92
2023-03-27T05:32:38.706Z,75.06
2023-03-27T05:33:41.757Z,75.04
2023-03-27T05:34:45.928Z,76.81
2023-03-27T05:35:52.571Z,77.35
2023-03-27T05:36:55.732Z,77.56
2023-03-27T05:37:59.080Z,78.14
2023-03-27T05:39:04.622Z,79.20
2023-03-27T05:40:07.886Z,79.36
2023-03-27T05:41:10.354Z,78.17
2023-03-27T05:42:16.834Z,78.48
2023-03-27T05:43:18.722Z,78.86
2023-03-27T05:44:21.287Z,80.80
2023-03-27T05:45:24.225Z,81.78
2023-03-27T05:46:26.174Z,81.23
2023-03-27T05:47:28.723Z,81.91
2023-03-27T05:48:31.033Z,80.29
2023-03-27T05:49:34.325Z,79.70
2023-03-27T05:50:41.687Z,80.73
2023-03-27T05:51:47.884Z,80.87
2023-03-27T05:52:58.327Z,81.05
2023-03-27T05:54:02.021Z,81.08
2023-03-27T05:55:08.233Z,80.53
2023-03-27T05:56:13.212Z,81.01
2023-03-27T05:57:17.090Z,80.91
2023-03-27T05:58:19.214Z,80.71
2023-03-27T05:59:22.100Z,81.35
2023-03-27T06:00:26.545Z,82.28
2023-03-27T06:01:29.230Z,81.05
2023-03-27T06:02:31.760Z,81.45
2023-03-27T06:03:38.514Z,82.33
2023-03-27T06:04:41.517Z,81.51
2023-03-27T06:05:47.079Z,81.23
2023-03-27T06:06:49.883Z,80.88
2023-03-27T06:07:52.314Z,81.25
2023-03-27T06:08:54.332Z,81.27
2023-03-27T06:09:57.106Z,82.04
2023-03-27T06:11:11.458Z,81.83
2023-03-27T06:12:16.217Z,82.38
2023-03-27T06:13:18.636Z,82.65
2023-03-27T06:14:24.245Z,82.72
2023-03-27T06:15:30.289Z,83.59
2023-03-27T06:16:34.335Z,83.31
2023-03-27T06:17:42.408Z,83.52
2023-03-27T06:18:44.377Z,82.48
2023-03-27T06:19:47.093Z,82.31
2023-03-27T06:20:50.123Z,81.93
2023-03-27T06:21:52.360Z,82.67
2023-03-27T06:22:57.577Z,82.99
2023-03-27T06:24:00.868Z,82.72
2023-03-27T06:25:05.852Z,82.57
2023-03-27T06:26:09.364Z,83.02
2023-03-27T06:27:11.235Z,82.17
2023-03-27T06:28:14.932Z,83.00
2023-03-27T06:29:18.303Z,83.61
2023-03-27T06:30:23.014Z,83.67
2023-03-27T06:31:30.733Z,83.95
2023-03-27T06:32:37.106Z,83.36
2023-03-27T06:33:42.714Z,83.83
2023-03-27T06:34:50.837Z,83.77
2023-03-27T06:36:00.845Z,83.37
2023-03-27T06:37:03.677Z,84.21
2023-03-27T06:38:09.578Z,83.32
2023-03-27T06:39:13.517Z,82.05
2023-03-27T06:40:25.004Z,81.71
2023-03-27T06:41:27.122Z,81.47
2023-03-27T06:42:33.401Z,81.96
2023-03-27T06:43:35.532Z,82.09
2023-03-27T06:44:41.542Z,81.42
2023-03-27T06:45:46.641Z,81.88
2023-03-27T06:46:50.612Z,82.65
2023-03-27T06:48:13.824Z,83.06
2023-03-27T06:49:22.190Z,81.99
2023-03-27T06:50:26.201Z,82.58
2023-03-27T06:51:28.943Z,83.21
2023-03-27T06:52:31.229Z,82.42
2023-03-27T06:53:37.460Z,82.27
2023-03-27T06:54:40.453Z,82.38
2023-03-27T06:55:43.719Z,82.02
2023-03-27T06:56:46.565Z,82.61
2023-03-27T06:57:51.495Z,82.08
2023-03-27T06:58:53.569Z,82.50
2023-03-27T06:59:59.075Z,82.21
2023-03-27T07:01:13.427Z,82.33
2023-03-27T07:02:20.112Z,83.50
2023-03-27T07:03:23.340Z,82.59
2023-03-27T07:04:28.263Z,83.27
2023-03-27T07:05:36.775Z,83.00
2023-03-27T07:06:39.713Z,82.83
2023-03-27T07:07:43.050Z,82.53
2023-03-27T07:08:47.771Z,83.18
2023-03-27T07:09:51.461Z,82.66
2023-03-27T07:11:59.987Z,83.37
2023-03-27T07:13:02.173Z,83.45
2023-03-27T07:14:04.127Z,83.35
2023-03-27T07:15:07.900Z,82.73
2023-03-27T07:16:12.463Z,82.43
2023-03-27T07:17:14.824Z,81.56
2023-03-27T07:18:17.602Z,81.35
2023-03-27T07:19:23.243Z,81.66
2023-03-27T07:20:30.981Z,81.73
2023-03-27T07:21:33.568Z,82.13
2023-03-27T07:22:36.156Z,81.47
2023-03-27T07:23:38.795Z,81.75
2023-03-27T07:24:41.493Z,81.79
2023-03-27T07:25:43.808Z,82.79
2023-03-27T07:26:46.911Z,82.68
2023-03-27T07:27:49.064Z,81.61
2023-03-27T07:28:51.786Z,81.31
2023-03-27T07:29:54.423Z,82.62
2023-03-27T07:30:56.742Z,82.82
2023-03-27T07:32:01.517Z,83.07
2023-03-27T07:33:09.479Z,82.70
2023-03-27T07:34:11.953Z,83.50
2023-03-27T07:35:20.747Z,82.22
2023-03-27T07:36:26.558Z,82.40
2023-03-27T07:37:29.138Z,81.29
2023-03-27T07:38:33.237Z,80.63
2023-03-27T07:39:36.623Z,81.25
2023-03-27T07:40:40.467Z,82.43
2023-03-27T07:41:43.666Z,82.49
2023-03-27T07:42:49.223Z,84.06
2023-03-27T07:43:51.446Z,84.75
2023-03-27T07:44:57.414Z,85.30
2023-03-27T07:45:59.707Z,84.42
2023-03-27T07:47:02.134Z,84.02
2023-03-27T07:48:11.763Z,83.91
2023-03-27T07:49:14.169Z,84.56
2023-03-27T07:50:19.085Z,84.19
2023-03-27T07:51:22.700Z,84.38
2023-03-27T07:52:25.016Z,83.61
2023-03-27T07:53:32.819Z,84.15
2023-03-27T07:54:38.426Z,84.76
2023-03-27T07:55:42.007Z,85.46
2023-03-27T07:56:45.029Z,86.08
2023-03-27T07:57:59.776Z,86.39
2023-03-27T07:59:04.201Z,86.49
2023-03-27T08:00:14.879Z,86.06
2023-03-27T08:01:18.221Z,86.03
2023-03-27T08:02:20.774Z,86.21
2023-03-27T08:03:26.114Z,85.32
2023-03-27T08:04:28.607Z,84.24
2023-03-27T08:05:31.118Z,84.42
2023-03-27T08:06:38.643Z,84.67
2023-03-27T08:07:45.432Z,84.27
2023-03-27T08:08:48.142Z,86.27
2023-03-27T08:09:50.488Z,85.96
2023-03-27T08:10:55.479Z,85.84
2023-03-27T08:11:58.658Z,85.86
2023-03-27T08:13:01.401Z,86.23
2023-03-27T08:14:03.820Z,88.10
2023-03-27T08:15:07.250Z,87.83
2023-03-27T08:16:11.947Z,88.60
2023-03-27T08:17:16.215Z,88.68
2023-03-27T08:18:19.692Z,87.75
2023-03-27T08:19:22.140Z,87.14
2023-03-27T08:20:24.906Z,87.63
2023-03-27T08:21:26.900Z,88.28
2023-03-27T08:22:29.598Z,87.58
2023-03-27T08:23:40.644Z,86.51
2023-03-27T08:24:51.422Z,87.75
2023-03-27T08:26:00.480Z,87.15
2023-03-27T08:27:03.919Z,87.96
2023-03-27T08:28:06.260Z,86.79
2023-03-27T08:29:09.254Z,87.53
2023-03-27T08:30:16.542Z,86.68
2023-03-27T08:31:19.641Z,86.72
2023-03-27T08:32:21.843Z,86.97
2023-03-27T08:33:27.555Z,86.58
2023-03-27T08:34:30.703Z,87.02
2023-03-27T08:35:32.929Z,86.98
2023-03-27T08:36:36.004Z,86.53
2023-03-27T08:37:38.562Z,86.61
2023-03-27T08:38:43.258Z,86.72
2023-03-27T08:39:48.957Z,87.06
2023-03-27T08:40:54.004Z,86.93
2023-03-27T08:42:03.088Z,85.87
2023-03-27T08:43:09.260Z,86.32
2023-03-27T08:44:14.962Z,87.49
2023-03-27T08:45:43.654Z,87.19
2023-03-27T08:46:52.348Z,87.42
2023-03-27T08:48:04.413Z,86.63
2023-03-27T08:49:15.101Z,86.73
2023-03-27T08:50:28.204Z,86.04
2023-03-27T08:51:41.791Z,86.02
2023-03-27T08:52:46.459Z,86.60
2023-03-27T08:53:57.054Z,86.52
2023-03-27T08:55:14.533Z,85.23
2023-03-27T08:56:20.703Z,85.90
2023-03-27T08:57:24.794Z,86.65
2023-03-27T08:58:28.577Z,85.95
2023-03-27T08:59:31.686Z,87.02
2023-03-27T09:00:40.660Z,87.50
2023-03-27T09:01:56.542Z,87.76
2023-03-27T09:03:12.082Z,88.13
2023-03-27T09:04:19.953Z,87.39
2023-03-27T09:05:40.600Z,87.65
2023-03-27T09:07:09.489Z,87.92
2023-03-27T09:08:32.174Z,87.82
2023-03-27T09:09:45.155Z,88.35
2023-03-27T09:10:55.329Z,87.17
2023-03-27T09:12:11.684Z,88.36
2023-03-27T09:13:29.042Z,88.19
2023-03-27T09:14:41.163Z,88.70
2023-03-27T09:16:00.574Z,88.37
2023-03-27T09:17:16.169Z,88.59
2023-03-27T09:18:27.946Z,89.88
2023-03-27T09:19:56.918Z,89.68
2023-03-27T09:21:05.884Z,88.50
2023-03-27T09:22:20.871Z,88.59
2023-03-27T09:23:38.348Z,88.61
2023-03-27T09:24:47.241Z,88.78
2023-03-27T09:25:56.051Z,88.10
2023-03-27T09:27:20.228Z,88.60
2023-03-27T09:28:30.961Z,90.25
2023-03-27T09:29:39.540Z,88.64
2023-03-27T09:30:42.489Z,88.70
2023-03-27T09:31:52.200Z,89.51
2023-03-27T09:32:58.455Z,89.44
2023-03-27T09:34:05.693Z,88.94
2023-03-27T09:35:18.033Z,89.24
2023-03-27T09:36:21.829Z,89.25
2023-03-27T09:37:23.717Z,88.51
2023-03-27T09:38:34.962Z,87.64
2023-03-27T09:39:41.838Z,88.46
2023-03-27T09:40:49.743Z,87.92
2023-03-27T09:41:57.506Z,86.55
2023-03-27T09:43:17.615Z,84.96
2023-03-27T09:44:40.045Z,85.34
2023-03-27T09:45:44.445Z,85.48
2023-03-27T09:46:49.752Z,86.12
2023-03-27T09:48:01.388Z,87.01
2023-03-27T09:49:18.534Z,86.63
2023-03-27T09:50:32.657Z,87.48
2023-03-27T09:51:44.097Z,87.87
2023-03-27T09:52:46.904Z,88.63
2023-03-27T09:53:59.344Z,88.21
2023-03-27T09:55:02.972Z,86.83
2023-03-27T09:56:13.193Z,87.80
2023-03-27T09:57:17.881Z,87.95
2023-03-27T09:58:28.538Z,87.73
2023-03-27T09:59:33.511Z,86.46
2023-03-27T10:00:36.947Z,87.50
2023-03-27T10:01:48.242Z,86.85
2023-03-27T10:03:00.535Z,86.00
2023-03-27T10:04:13.110Z,86.09
2023-03-27T10:05:20.032Z,87.39
2023-03-27T10:06:32.601Z,88.33
2023-03-27T10:07:35.190Z,86.37
2023-03-27T10:08:50.392Z,86.26
2023-03-27T10:10:15.496Z,88.21
2023-03-27T10:11:24.075Z,86.73
2023-03-27T10:12:27.244Z,87.05
2023-03-27T10:13:29.561Z,87.63
2023-03-27T10:14:40.922Z,87.14
2023-03-27T10:15:43.417Z,88.06
2023-03-27T10:16:47.732Z,88.49
2023-03-27T10:17:50.375Z,88.28
2023-03-27T10:18:55.727Z,87.10
2023-03-27T10:20:14.314Z,87.50
2023-03-27T10:21:33.110Z,87.19
2023-03-27T10:22:38.589Z,87.05
2023-03-27T10:23:49.979Z,86.34
2023-03-27T10:24:53.620Z,86.91
2023-03-27T10:26:01.544Z,86.50
2023-03-27T10:27:09.736Z,86.37
2023-03-27T10:28:17.484Z,86.42
2023-03-27T10:29:32.331Z,86.36
2023-03-27T10:30:38.009Z,86.94
2023-03-27T10:31:50.359Z,88.06
2023-03-27T10:32:52.936Z,87.38
2023-03-27T10:34:01.001Z,87.81
2023-03-27T10:35:05.495Z,87.21
2023-03-27T10:36:11.924Z,86.65
2023-03-27T10:37:27.416Z,86.73
2023-03-27T10:38:33.345Z,87.80
2023-03-27T10:39:35.898Z,86.75
2023-03-27T10:40:40.619Z,86.48
2023-03-27T10:41:48.234Z,86.94
2023-03-27T10:42:50.848Z,87.07
2023-03-27T10:43:53.605Z,86.67
2023-03-27T10:44:57.602Z,86.74
2023-03-27T10:46:22.378Z,87.62
2023-03-27T10:47:30.286Z,87.83
2023-03-27T10:48:47.731Z,87.49
2023-03-27T10:50:24.233Z,87.82
2023-03-27T10:51:45.650Z,87.21
2023-03-27T10:52:55.373Z,86.86
2023-03-27T10:54:32.293Z,86.57
2023-03-27T10:55:41.475Z,86.58
2023-03-27T10:57:12.504Z,86.57
2023-03-27T10:58:39.071Z,87.45
2023-03-27T11:00:19.964Z,86.13
2023-03-27T11:01:39.462Z,86.98
2023-03-27T11:02:57.532Z,87.49
2023-03-27T11:04:08.268Z,86.86
2023-03-27T11:05:23.547Z,86.91
2023-03-27T11:06:32.453Z,87.73
2023-03-27T11:07:55.688Z,87.53
2023-03-27T11:09:20.376Z,87.44
2023-03-27T11:10:30.490Z,86.28
2023-03-27T11:11:58.536Z,87.23
2023-03-27T11:13:23.944Z,87.21
2023-03-27T11:14:35.647Z,88.94
2023-03-27T11:15:44.282Z,88.42
2023-03-27T11:16:55.662Z,87.92
2023-03-27T11:18:27.715Z,87.47
2023-03-27T11:19:43.123Z,86.49
2023-03-27T11:20:51.912Z,87.04
2023-03-27T11:22:17.186Z,86.32
2023-03-27T11:23:44.651Z,87.21
2023-03-27T11:24:57.009Z,87.08
2023-03-27T11:26:03.138Z,85.94
2023-03-27T11:27:38.429Z,86.58
2023-03-27T11:28:47.075Z,87.61
2023-03-27T11:29:59.936Z,87.17
2023-03-27T11:31:44.182Z,87.45
2023-03-27T11:33:09.664Z,86.68
2023-03-27T11:34:31.096Z,85.90
2023-03-27T11:35:43.757Z,88.20
2023-03-27T11:37:01.636Z,87.01
2023-03-27T11:38:16.446Z,86.35
2023-03-27T11:39:51.677Z,84.62
2023-03-27T11:40:53.654Z,88.09
2023-03-27T11:42:02.572Z,87.07
2023-03-27T11:43:05.161Z,86.95
2023-03-27T11:44:10.688Z,95.33
2023-03-27T11:45:19.045Z,86.77
2023-03-27T11:46:51.375Z,86.61
2023-03-27T11:48:05.586Z,86.13
2023-03-27T11:49:27.593Z,85.70
2023-03-27T11:50:34.778Z,86.30
2023-03-27T11:51:41.777Z,86.59
2023-03-27T11:52:46.799Z,86.37
2023-03-27T11:54:03.516Z,86.42
2023-03-27T11:55:41.032Z,86.81
2023-03-27T11:56:48.721Z,86.94
2023-03-27T11:58:03.255Z,86.99
2023-03-27T11:59:11.091Z,86.40
2023-03-27T12:00:34.089Z,87.08
2023-03-27T12:01:44.922Z,86.88
2023-03-27T12:03:33.684Z,86.85
2023-03-27T12:04:43.157Z,86.46
2023-03-27T12:06:02.049Z,86.65
2023-03-27T12:07:05.357Z,86.18
2023-03-27T12:08:14.136Z,86.62
2023-03-27T12:09:43.670Z,87.20
2023-03-27T12:10:51.125Z,86.74
2023-03-27T12:12:30.085Z,87.12
2023-03-27T12:14:00.533Z,87.74
2023-03-27T12:15:29.861Z,86.77
2023-03-27T12:17:12.490Z,85.67
2023-03-27T12:18:41.370Z,87.33
2023-03-27T12:19:50.857Z,86.66
2023-03-27T12:21:13.775Z,86.46
2023-03-27T12:22:58.454Z,87.50
2023-03-27T12:24:29.809Z,87.78
2023-03-27T12:26:09.906Z,87.52
2023-03-27T12:27:26.158Z,87.05
2023-03-27T12:28:49.934Z,87.92
2023-03-27T12:30:27.372Z,88.10
2023-03-27T12:32:08.759Z,87.34
2023-03-27T12:33:39.479Z,87.71
2023-03-27T12:34:50.110Z,87.60
2023-03-27T12:35:57.658Z,87.75
2023-03-27T12:37:01.852Z,87.28
2023-03-27T12:38:08.411Z,87.19
2023-03-27T12:39:26.711Z,87.56
2023-03-27T12:40:31.298Z,87.56
2023-03-27T12:41:43.131Z,86.34
2023-03-27T12:42:49.044Z,86.85
2023-03-27T12:43:59.731Z,87.50
2023-03-27T12:45:23.525Z,87.24
2023-03-27T12:46:28.888Z,87.91
2023-03-27T12:47:31.105Z,88.42
2023-03-27T12:48:48.505Z,88.44
2023-03-27T12:50:18.083Z,87.07
2023-03-27T12:51:47.533Z,87.03
2023-03-27T12:52:53.190Z,87.18
2023-03-27T12:53:56.407Z,87.27
2023-03-27T12:55:13.834Z,87.71
2023-03-27T12:56:17.122Z,87.64
2023-03-27T12:57:22.453Z,87.34
2023-03-27T12:58:35.108Z,87.19
2023-03-27T12:59:53.753Z,88.03
2023-03-27T13:01:00.189Z,86.32
2023-03-27T13:02:06.295Z,86.60
2023-03-27T13:03:51.815Z,86.86
2023-03-27T13:05:24.165Z,87.82
2023-03-27T13:06:47.139Z,87.95
2023-03-27T13:08:12.279Z,87.41
2023-03-27T13:09:35.391Z,87.57
2023-03-27T13:11:08.959Z,86.93
2023-03-27T13:12:23.085Z,88.12
2023-03-27T13:14:11.513Z,87.51
2023-03-27T13:15:53.591Z,87.24
2023-03-27T13:17:20.984Z,88.50
2023-03-27T13:18:59.044Z,87.98
2023-03-27T13:20:39.217Z,87.78
2023-03-27T13:21:51.272Z,84.99
2023-03-27T13:23:08.340Z,83.73
2023-03-27T13:24:23.644Z,85.32
2023-03-27T13:26:00.853Z,84.07
2023-03-27T13:27:28.862Z,81.61
2023-03-27T13:28:40.138Z,83.26
2023-03-27T13:29:47.979Z,82.30
2023-03-27T13:30:53.172Z,81.74
2023-03-27T13:32:16.627Z,82.88
2023-03-27T13:33:30.106Z,81.87
2023-03-27T13:34:41.588Z,81.99
2023-03-27T13:35:52.758Z,81.55
2023-03-27T13:37:07.474Z,81.63
2023-03-27T13:38:14.616Z,82.00
2023-03-27T13:39:24.946Z,81.90
2023-03-27T13:40:35.531Z,80.97
2023-03-27T13:41:44.843Z,79.68
2023-03-27T13:42:53.241Z,80.61
2023-03-27T13:43:55.908Z,79.57
2023-03-27T13:45:17.610Z,79.64
2023-03-27T13:46:29.172Z,80.23
2023-03-27T13:47:34.993Z,80.30
2023-03-27T13:49:04.933Z,79.36
2023-03-27T13:50:37.990Z,79.78
2023-03-27T13:52:22.521Z,80.17
2023-03-27T13:53:37.769Z,78.64
2023-03-27T13:55:17.682Z,77.97
2023-03-27T13:56:45.431Z,76.19
2023-03-27T13:58:09.336Z,76.64
2023-03-27T13:59:42.324Z,78.18
2023-03-27T14:01:21.049Z,78.12
2023-03-27T14:03:02.224Z,77.74
2023-03-27T14:04:36.066Z,78.45
2023-03-27T14:05:58.856Z,77.42
2023-03-27T14:07:43.344Z,77.51
2023-03-27T14:09:11.427Z,77.03
2023-03-27T14:10:23.635Z,78.06
2023-03-27T14:12:09.814Z,77.89
2023-03-27T14:13:13.846Z,77.08
2023-03-27T14:14:46.888Z,76.46
2023-03-27T14:16:31.580Z,76.34
2023-03-27T14:17:56.764Z,76.57
2023-03-27T14:19:52.977Z,75.56
2023-03-27T14:21:01.877Z,76.04
2023-03-27T14:22:32.205Z,76.53
2023-03-27T14:24:04.115Z,77.14
2023-03-27T14:25:14.293Z,76.20
2023-03-27T14:26:21.569Z,75.93
2023-03-27T14:27:24.557Z,74.96
2023-03-27T14:28:34.767Z,76.05
2023-03-27T14:29:37.148Z,75.17
2023-03-27T14:30:47.496Z,76.45
2023-03-27T14:31:51.376Z,76.69
2023-03-27T14:32:56.633Z,77.20
2023-03-27T14:34:12.660Z,77.02
2023-03-27T14:35:36.023Z,75.13
2023-03-27T14:36:50.197Z,75.28
2023-03-27T14:38:00.259Z,74.67
2023-03-27T14:39:14.729Z,75.60
2023-03-27T14:40:37.189Z,76.30
2023-03-27T14:42:05.662Z,76.96
2023-03-27T14:43:12.257Z,75.92
2023-03-27T14:44:18.025Z,74.05
2023-03-27T14:45:27.244Z,75.20
2023-03-27T14:46:30.309Z,76.70
2023-03-27T14:47:33.673Z,76.14
2023-03-27T14:48:38.831Z,75.06
2023-03-27T14:49:49.026Z,76.06
2023-03-27T14:50:58.060Z,75.91
2023-03-27T14:52:04.395Z,75.66
2023-03-27T14:53:11.072Z,77.19
2023-03-27T14:54:27.356Z,78.34
2023-03-27T14:55:34.435Z,76.71
2023-03-27T14:56:47.444Z,76.59
2023-03-27T14:57:57.751Z,75.13
2023-03-27T14:59:05.678Z,75.82
2023-03-27T15:00:16.599Z,76.21
2023-03-27T15:01:18.949Z,75.74
2023-03-27T15:02:34.919Z,74.89
2023-03-27T15:03:38.576Z,79.15
2023-03-27T15:04:41.071Z,74.30